createdAt,value
2023-03-24T00:01:29.297Z,84.21
2023-03-24T00:03:55.831Z,84.89
2023-03-24T00:06:23.030Z,84.59
2023-03-24T00:08:49.802Z,84.67
2023-03-24T00:11:18.703Z,84.05
2023-03-24T00:13:47.157Z,84.05
2023-03-24T00:16:16.811Z,81.39
2023-03-24T00:18:43.349Z,81.76
2023-03-24T00:21:11.570Z,80.56
2023-03-24T00:23:38.328Z,81.20
2023-03-24T00:26:15.230Z,79.70
2023-03-24T00:28:48.278Z,80.68
2023-03-24T00:31:16.288Z,81.75
2023-03-24T00:33:44.304Z,81.91
2023-03-24T00:36:12.083Z,80.09
2023-03-24T00:38:41.012Z,79.02
2023-03-24T00:41:10.582Z,80.30
2023-03-24T00:43:37.454Z,79.75
2023-03-24T00:46:07.787Z,80.27
2023-03-24T00:48:35.277Z,82.79
2023-03-24T00:51:05.708Z,82.35
2023-03-24T00:53:32.155Z,82.08
2023-03-24T00:55:58.896Z,82.83
2023-03-24T00:58:25.815Z,83.99
2023-03-24T01:00:55.440Z,84.02
2023-03-24T01:03:26.905Z,83.07
2023-03-24T01:06:03.174Z,82.13
2023-03-24T01:08:30.900Z,83.02
2023-03-24T01:10:57.425Z,84.36
2023-03-24T01:13:28.756Z,85.19
2023-03-24T01:15:55.944Z,86.51
2023-03-24T01:18:27.684Z,87.56
2023-03-24T01:20:54.319Z,89.64
2023-03-24T01:23:23.886Z,90.53
2023-03-24T01:25:51.793Z,90.02
2023-03-24T01:28:23.380Z,91.24
2023-03-24T01:30:49.932Z,87.20
2023-03-24T01:33:16.595Z,88.41
2023-03-24T01:35:43.647Z,87.33
2023-03-24T01:38:12.243Z,86.69
2023-03-24T01:40:41.891Z,85.12
2023-03-24T01:43:18.860Z,84.98
2023-03-24T01:45:54.293Z,84.39
2023-03-24T01:48:51.716Z,83.48
2023-03-24T01:51:21.216Z,82.28
2023-03-24T01:53:55.884Z,82.04
2023-03-24T01:56:23.159Z,81.39
2023-03-24T01:58:54.944Z,81.27
2023-03-24T02:01:44.837Z,81.47
2023-03-24T02:04:40.386Z,79.70
2023-03-24T02:07:28.175Z,82.38
2023-03-24T02:09:54.656Z,81.84
2023-03-24T02:12:21.917Z,83.58
2023-03-24T02:14:49.327Z,85.92
2023-03-24T02:17:21.978Z,88.82
2023-03-24T02:20:12.380Z,93.36
2023-03-24T02:23:00.753Z,96.96
2023-03-24T02:25:38.590Z,95.75
2023-03-24T02:28:16.506Z,97.26
2023-03-24T02:31:07.322Z,97.78
2023-03-24T02:33:48.976Z,99.19
2023-03-24T02:36:54.552Z,93.12
2023-03-24T02:39:41.683Z,95.83
2023-03-24T02:42:26.140Z,97.36
2023-03-24T02:45:17.047Z,94.54
2023-03-24T02:47:52.866Z,97.32
2023-03-24T02:50:29.542Z,94.19
2023-03-24T02:53:02.774Z,95.66
2023-03-24T02:55:39.596Z,98.10
2023-03-24T02:58:40.535Z,100.00
2023-03-24T03:01:31.492Z,100.00
2023-03-24T03:04:14.282Z,100.00
2023-03-24T03:06:47.780Z,100.00
2023-03-24T03:09:17.762Z,100.00
2023-03-24T03:11:48.951Z,100.00
2023-03-24T03:14:25.881Z,100.00
2023-03-24T03:17:01.550Z,100.00
2023-03-24T03:19:40.953Z,100.00
2023-03-24T03:22:14.928Z,100.00
2023-03-24T03:24:44.917Z,100.00
2023-03-24T03:27:19.637Z,100.00
2023-03-24T03:29:54.376Z,100.00
2023-03-24T03:32:28.241Z,100.00
2023-03-24T03:35:07.924Z,100.00
2023-03-24T03:37:49.665Z,100.00
2023-03-24T03:40:31.580Z,100.00
2023-03-24T03:43:06.148Z,100.00
2023-03-24T03:45:34.043Z,100.00
2023-03-24T03:48:02.084Z,100.00
2023-03-24T03:50:28.918Z,100.00
2023-03-24T03:52:59.012Z,100.00
2023-03-24T03:55:25.502Z,99.15
2023-03-24T03:57:53.022Z,100.00
2023-03-24T04:00:31.635Z,100.00
2023-03-24T04:03:22.315Z,100.00
2023-03-24T04:06:15.389Z,100.00
2023-03-24T04:08:49.501Z,100.00
2023-03-24T04:11:37.455Z,100.00
2023-03-24T04:14:49.704Z,100.00
2023-03-24T04:17:56.520Z,100.00
2023-03-24T04:20:57.151Z,100.00
2023-03-24T04:23:54.244Z,99.72
2023-03-24T04:26:34.227Z,100.00
2023-03-24T04:29:18.321Z,100.00
2023-03-24T04:31:53.331Z,100.00
2023-03-24T04:34:25.964Z,100.00
2023-03-24T04:37:05.373Z,100.00
2023-03-24T04:39:40.632Z,100.00
2023-03-24T04:42:27.996Z,100.00
2023-03-24T04:44:57.536Z,100.00
2023-03-24T04:47:50.999Z,99.87
2023-03-24T04:50:40.432Z,100.00
2023-03-24T04:53:13.109Z,100.00
2023-03-24T04:56:02.782Z,100.00
2023-03-24T04:58:47.817Z,100.00
2023-03-24T05:01:17.005Z,100.00
2023-03-24T05:03:55.189Z,100.00
2023-03-24T05:06:21.904Z,100.00
2023-03-24T05:08:48.982Z,100.00
2023-03-24T05:11:15.536Z,100.00
2023-03-24T05:13:48.303Z,100.00
2023-03-24T05:16:15.168Z,100.00
2023-03-24T05:18:47.926Z,100.00
2023-03-24T05:21:14.572Z,100.00
2023-03-24T05:23:41.096Z,100.00
2023-03-24T05:26:08.162Z,100.00
2023-03-24T05:28:45.828Z,100.00
2023-03-24T05:31:12.442Z,100.00
2023-03-24T05:33:43.821Z,100.00
2023-03-24T05:36:15.023Z,100.00
2023-03-24T05:38:44.524Z,100.00
2023-03-24T05:41:11.178Z,100.00
2023-03-24T05:43:41.276Z,100.00
2023-03-24T05:46:10.759Z,100.00
2023-03-24T05:48:37.528Z,100.00
2023-03-24T05:51:24.297Z,100.00
2023-03-24T05:54:00.325Z,100.00
2023-03-24T05:56:32.765Z,100.00
2023-03-24T05:59:28.334Z,100.00
2023-03-24T06:02:13.504Z,100.00
2023-03-24T06:04:51.651Z,100.00
2023-03-24T06:07:22.112Z,100.00
2023-03-24T06:09:50.952Z,100.00
2023-03-24T06:12:18.317Z,100.00
2023-03-24T06:14:52.297Z,100.00
2023-03-24T06:17:21.285Z,100.00
2023-03-24T06:19:51.543Z,100.00
2023-03-24T06:22:38.614Z,100.00
2023-03-24T06:25:11.797Z,100.00
2023-03-24T06:27:46.157Z,100.00
2023-03-24T06:30:18.512Z,100.00
2023-03-24T06:32:48.054Z,100.00
2023-03-24T06:35:17.388Z,100.00
2023-03-24T06:38:01.309Z,100.00
2023-03-24T06:40:28.116Z,100.00
2023-03-24T06:42:57.750Z,100.00
2023-03-24T06:45:24.384Z,100.00
2023-03-24T06:47:55.778Z,100.00
2023-03-24T06:50:26.885Z,100.00
2023-03-24T06:52:54.551Z,100.00
2023-03-24T06:55:22.324Z,100.00
2023-03-24T06:57:52.152Z,100.00
2023-03-24T07:00:44.165Z,100.00
2023-03-24T07:03:31.580Z,100.00
2023-03-24T07:06:18.330Z,100.00
2023-03-24T07:08:49.751Z,100.00
2023-03-24T07:11:16.767Z,100.00
2023-03-24T07:13:53.041Z,100.00
2023-03-24T07:16:19.853Z,100.00
2023-03-24T07:18:50.783Z,100.00
2023-03-24T07:21:18.329Z,100.00
2023-03-24T07:23:46.294Z,100.00
2023-03-24T07:26:17.376Z,100.00
2023-03-24T07:28:47.281Z,100.00
2023-03-24T07:31:22.852Z,100.00
2023-03-24T07:33:54.657Z,100.00
2023-03-24T07:36:21.467Z,100.00
2023-03-24T07:38:47.917Z,100.00
2023-03-24T07:41:23.070Z,100.00
2023-03-24T07:43:53.609Z,100.00
2023-03-24T07:46:24.264Z,100.00
2023-03-24T07:48:51.320Z,100.00
2023-03-24T07:51:19.916Z,100.00
2023-03-24T07:53:52.814Z,100.00
2023-03-24T07:56:32.014Z,100.00
2023-03-24T07:59:01.342Z,100.00
2023-03-24T08:01:38.398Z,100.00
2023-03-24T08:04:13.020Z,100.00
2023-03-24T08:06:55.563Z,100.00
2023-03-24T08:09:24.155Z,100.00
2023-03-24T08:11:51.485Z,100.00
2023-03-24T08:14:17.915Z,100.00
2023-03-24T08:16:46.253Z,100.00
2023-03-24T08:19:12.909Z,100.00
2023-03-24T08:21:39.334Z,100.00
2023-03-24T08:24:06.725Z,100.00
2023-03-24T08:26:35.257Z,100.00
2023-03-24T08:29:03.087Z,100.00
2023-03-24T08:31:34.119Z,100.00
2023-03-24T08:34:00.807Z,100.00
2023-03-24T08:36:27.565Z,100.00
2023-03-24T08:38:55.931Z,100.00
2023-03-24T08:41:30.852Z,100.00
2023-03-24T08:43:57.286Z,100.00
2023-03-24T08:46:23.851Z,100.00
2023-03-24T08:48:50.376Z,100.00
2023-03-24T08:51:17.847Z,100.00
2023-03-24T08:53:44.567Z,100.00
2023-03-24T08:56:11.103Z,100.00
2023-03-24T08:58:37.624Z,100.00
2023-03-24T09:01:04.196Z,100.00
2023-03-24T09:03:31.952Z,100.00
2023-03-24T09:05:58.874Z,100.00
2023-03-24T09:08:26.152Z,100.00
2023-03-24T09:10:52.719Z,100.00
2023-03-24T09:13:20.849Z,100.00
2023-03-24T09:15:53.721Z,100.00
2023-03-24T09:18:21.529Z,100.00
2023-03-24T09:20:48.879Z,100.00
2023-03-24T09:23:15.692Z,100.00
2023-03-24T09:25:42.355Z,100.00
2023-03-24T09:28:08.877Z,100.00
2023-03-24T09:30:36.023Z,100.00
2023-03-24T09:33:02.876Z,100.00
2023-03-24T09:35:29.420Z,100.00
2023-03-24T09:37:56.242Z,100.00
2023-03-24T09:40:28.341Z,100.00
2023-03-24T09:43:03.135Z,100.00
2023-03-24T09:45:33.811Z,100.00
2023-03-24T09:48:05.801Z,100.00
2023-03-24T09:50:46.614Z,100.00
2023-03-24T09:53:35.328Z,100.00
2023-03-24T09:56:13.217Z,100.00
2023-03-24T09:58:41.677Z,100.00
2023-03-24T10:01:16.620Z,100.00
2023-03-24T10:03:44.338Z,100.00
2023-03-24T10:06:23.383Z,100.00
2023-03-24T10:09:10.125Z,100.00
2023-03-24T10:11:46.943Z,100.00
2023-03-24T10:14:32.013Z,100.00
2023-03-24T10:17:36.428Z,100.00
2023-03-24T10:20:16.987Z,100.00
2023-03-24T10:22:59.727Z,100.00
2023-03-24T10:25:51.125Z,100.00
2023-03-24T10:28:32.045Z,100.00
2023-03-24T10:31:02.748Z,100.00
2023-03-24T10:33:30.637Z,100.00
2023-03-24T10:36:07.750Z,100.00
2023-03-24T10:38:34.808Z,100.00
2023-03-24T10:41:02.055Z,100.00
2023-03-24T10:43:30.715Z,100.00
2023-03-24T10:45:59.646Z,100.00
2023-03-24T10:48:47.591Z,100.00
2023-03-24T10:51:16.945Z,100.00
2023-03-24T10:53:47.822Z,100.00
2023-03-24T10:56:38.084Z,100.00
2023-03-24T10:59:22.882Z,100.00
2023-03-24T11:01:52.336Z,100.00
2023-03-24T11:04:20.769Z,100.00
2023-03-24T11:07:16.111Z,100.00
2023-03-24T11:09:45.798Z,100.00
2023-03-24T11:12:27.962Z,100.00
2023-03-24T11:15:20.217Z,100.00
2023-03-24T11:18:28.369Z,100.00
2023-03-24T11:21:06.772Z,100.00
2023-03-24T11:23:38.090Z,100.00
2023-03-24T11:26:18.576Z,100.00
2023-03-24T11:28:55.496Z,100.00
2023-03-24T11:31:25.711Z,100.00
2023-03-24T11:33:59.335Z,100.00
2023-03-24T11:36:32.975Z,100.00
2023-03-24T11:39:27.935Z,100.00
2023-03-24T11:42:05.719Z,100.00
2023-03-24T11:44:53.177Z,100.00
2023-03-24T11:47:40.283Z,100.00
2023-03-24T11:50:16.262Z,100.00
2023-03-24T11:52:50.720Z,100.00
2023-03-24T11:55:23.744Z,100.00
2023-03-24T11:58:02.271Z,100.00
2023-03-24T12:00:35.205Z,100.00
2023-03-24T12:03:24.699Z,100.00
2023-03-24T12:06:07.691Z,100.00
2023-03-24T12:08:51.932Z,100.00
2023-03-24T12:11:44.761Z,100.00
2023-03-24T12:14:11.244Z,100.00
2023-03-24T12:16:56.854Z,100.00
2023-03-24T12:19:32.176Z,100.00
2023-03-24T12:22:25.942Z,100.00
2023-03-24T12:25:10.599Z,100.00
2023-03-24T12:28:09.415Z,100.00
2023-03-24T12:31:03.877Z,100.00
2023-03-24T12:33:41.604Z,100.00
2023-03-24T12:36:43.994Z,100.00
2023-03-24T12:39:12.658Z,100.00
2023-03-24T12:42:18.765Z,100.00
2023-03-24T12:45:07.042Z,100.00
2023-03-24T12:47:57.558Z,100.00
2023-03-24T12:50:27.223Z,100.00
2023-03-24T12:53:14.247Z,98.63
2023-03-24T12:55:46.866Z,93.71
2023-03-24T12:58:51.982Z,97.17
2023-03-24T13:01:35.548Z,98.70
2023-03-24T13:04:10.372Z,98.00
2023-03-24T13:06:40.086Z,100.00
2023-03-24T13:09:24.764Z,100.00
2023-03-24T13:12:18.720Z,100.00
2023-03-24T13:15:02.195Z,100.00
2023-03-24T13:17:42.804Z,100.00
2023-03-24T13:20:17.120Z,100.00
2023-03-24T13:22:44.410Z,100.00
2023-03-24T13:25:25.018Z,100.00
2023-03-24T13:27:55.893Z,100.00
2023-03-24T13:30:33.656Z,100.00
2023-03-24T13:33:07.380Z,100.00
2023-03-24T13:35:51.502Z,100.00
2023-03-24T13:38:29.683Z,100.00
2023-03-24T13:40:56.628Z,100.00
2023-03-24T13:43:26.033Z,100.00
2023-03-24T13:46:01.320Z,100.00
2023-03-24T13:48:43.549Z,100.00
2023-03-24T13:51:24.922Z,100.00
2023-03-24T13:54:18.797Z,100.00
2023-03-24T13:57:04.229Z,100.00
2023-03-24T13:59:42.069Z,100.00
2023-03-24T14:02:48.714Z,100.00
2023-03-24T14:05:56.900Z,100.00
2023-03-24T14:08:43.895Z,100.00
2023-03-24T14:11:32.473Z,100.00
2023-03-24T14:14:29.195Z,100.00
2023-03-24T14:17:04.847Z,100.00
2023-03-24T14:19:39.128Z,100.00
2023-03-24T14:22:27.654Z,100.00
2023-03-24T14:25:04.387Z,100.00
2023-03-24T14:27:37.386Z,100.00
2023-03-24T14:30:10.856Z,100.00
2023-03-24T14:32:46.677Z,100.00
2023-03-24T14:35:29.796Z,100.00
2023-03-24T14:38:00.031Z,100.00
2023-03-24T14:40:39.920Z,100.00
2023-03-24T14:43:28.497Z,100.00
2023-03-24T14:45:56.822Z,100.00
2023-03-24T14:48:56.378Z,100.00
2023-03-24T14:51:36.708Z,100.00
2023-03-24T14:54:16.379Z,100.00
2023-03-24T14:56:46.996Z,100.00
2023-03-24T14:59:31.265Z,100.00
2023-03-24T15:02:16.580Z,100.00
2023-03-24T15:05:15.352Z,99.74
2023-03-24T15:07:43.661Z,100.00
2023-03-24T15:10:17.662Z,100.00
2023-03-24T15:12:49.129Z,100.00
2023-03-24T15:15:18.203Z,97.77
2023-03-24T15:17:45.405Z,100.00
2023-03-24T15:20:24.486Z,100.00
2023-03-24T15:22:54.877Z,100.00
2023-03-24T15:25:28.956Z,100.00
2023-03-24T15:27:57.668Z,100.00
2023-03-24T15:30:24.814Z,100.00
2023-03-24T15:32:51.989Z,100.00
2023-03-24T15:35:21.239Z,100.00
2023-03-24T15:37:56.878Z,100.00
2023-03-24T15:40:26.417Z,100.00
2023-03-24T15:42:55.295Z,100.00
2023-03-24T15:45:28.061Z,99.43
2023-03-24T15:47:55.703Z,100.00
2023-03-24T15:50:32.568Z,100.00
2023-03-24T15:53:23.607Z,100.00
2023-03-24T15:56:24.467Z,100.00
2023-03-24T15:58:54.869Z,100.00
2023-03-24T16:01:31.131Z,100.00
2023-03-24T16:04:00.650Z,100.00
2023-03-24T16:06:30.212Z,100.00
2023-03-24T16:09:01.640Z,100.00
2023-03-24T16:11:29.161Z,100.00
2023-03-24T16:13:56.845Z,100.00
2023-03-24T16:16:27.698Z,100.00
2023-03-24T16:18:56.283Z,100.00
2023-03-24T16:21:28.142Z,100.00
2023-03-24T16:23:56.561Z,100.00
2023-03-24T16:26:25.970Z,100.00
2023-03-24T16:28:54.020Z,100.00
2023-03-24T16:31:30.928Z,100.00
2023-03-24T16:33:58.176Z,100.00
2023-03-24T16:36:28.660Z,100.00
2023-03-24T16:38:57.439Z,100.00
2023-03-24T16:41:24.994Z,100.00
2023-03-24T16:43:53.003Z,100.00
2023-03-24T16:46:31.438Z,100.00
2023-03-24T16:48:58.985Z,100.00
2023-03-24T16:51:25.580Z,100.00
2023-03-24T16:53:52.185Z,100.00
2023-03-24T16:56:21.234Z,100.00
2023-03-24T16:58:57.686Z,100.00
2023-03-24T17:01:35.821Z,100.00
2023-03-24T17:04:03.815Z,100.00
2023-03-24T17:06:32.742Z,100.00
2023-03-24T17:08:59.580Z,100.00
2023-03-24T17:11:31.527Z,100.00
2023-03-24T17:14:11.955Z,100.00
2023-03-24T17:16:43.477Z,100.00
2023-03-24T17:19:16.541Z,100.00
2023-03-24T17:22:04.622Z,100.00
2023-03-24T17:24:35.770Z,100.00
2023-03-24T17:27:03.279Z,100.00
2023-03-24T17:29:29.775Z,100.00
2023-03-24T17:31:56.378Z,100.00
2023-03-24T17:34:23.075Z,100.00
2023-03-24T17:36:50.814Z,100.00
2023-03-24T17:39:19.482Z,100.00
2023-03-24T17:41:46.091Z,100.00
2023-03-24T17:44:12.720Z,100.00
2023-03-24T17:46:39.252Z,100.00
2023-03-24T17:49:06.388Z,100.00
2023-03-24T17:51:33.155Z,100.00
2023-03-24T17:53:59.809Z,100.00
2023-03-24T17:56:26.571Z,100.00
2023-03-24T17:58:54.720Z,100.00
2023-03-24T18:01:21.933Z,100.00
2023-03-24T18:03:49.696Z,100.00
2023-03-24T18:06:16.876Z,100.00
2023-03-24T18:08:44.260Z,100.00
2023-03-24T18:11:14.518Z,100.00
2023-03-24T18:13:42.471Z,100.00
2023-03-24T18:16:20.745Z,100.00
2023-03-24T18:18:49.160Z,100.00
2023-03-24T18:21:16.156Z,100.00
2023-03-24T18:23:43.272Z,100.00
2023-03-24T18:26:09.987Z,100.00
2023-03-24T18:28:38.860Z,100.00
2023-03-24T18:31:15.367Z,100.00
2023-03-24T18:33:43.008Z,100.00
2023-03-24T18:36:10.345Z,100.00
2023-03-24T18:38:37.273Z,100.00
2023-03-24T18:41:06.339Z,100.00
2023-03-24T18:43:41.072Z,100.00
2023-03-24T18:46:09.748Z,100.00
2023-03-24T18:48:41.888Z,100.00
2023-03-24T18:51:08.890Z,100.00
2023-03-24T18:53:35.418Z,100.00
2023-03-24T18:56:04.239Z,100.00
2023-03-24T18:58:30.996Z,100.00
2023-03-24T19:00:58.870Z,100.00
2023-03-24T19:03:26.284Z,100.00
2023-03-24T19:05:55.828Z,100.00
2023-03-24T19:08:22.891Z,100.00
2023-03-24T19:10:49.441Z,100.00
2023-03-24T19:13:17.031Z,100.00
2023-03-24T19:15:47.970Z,100.00
2023-03-24T19:18:14.949Z,100.00
2023-03-24T19:20:42.018Z,100.00
2023-03-24T19:23:08.822Z,100.00
2023-03-24T19:25:35.375Z,100.00
2023-03-24T19:28:01.817Z,100.00
2023-03-24T19:30:28.337Z,100.00
2023-03-24T19:32:54.861Z,100.00
2023-03-24T19:35:21.522Z,100.00
2023-03-24T19:37:48.229Z,100.00
2023-03-24T19:40:15.605Z,100.00
2023-03-24T19:42:44.713Z,100.00
2023-03-24T19:45:13.465Z,100.00
2023-03-24T19:47:39.967Z,100.00
2023-03-24T19:50:08.379Z,100.00
2023-03-24T19:52:38.761Z,100.00
2023-03-24T19:55:06.651Z,100.00
2023-03-24T19:57:33.421Z,100.00
2023-03-24T20:00:00.646Z,100.00
2023-03-24T20:02:28.070Z,100.00
2023-03-24T20:04:55.654Z,100.00
2023-03-24T20:07:23.078Z,100.00
2023-03-24T20:09:49.574Z,100.00
2023-03-24T20:12:16.258Z,100.00
2023-03-24T20:14:42.919Z,100.00
2023-03-24T20:17:17.028Z,100.00
2023-03-24T20:19:43.878Z,100.00
2023-03-24T20:22:10.817Z,100.00
2023-03-24T20:24:40.353Z,100.00
2023-03-24T20:27:07.621Z,100.00
2023-03-24T20:29:34.791Z,100.00
2023-03-24T20:32:02.235Z,100.00
2023-03-24T20:34:28.937Z,100.00
2023-03-24T20:36:56.056Z,100.00
2023-03-24T20:39:22.995Z,100.00
2023-03-24T20:41:49.689Z,100.00
2023-03-24T20:44:16.265Z,100.00
2023-03-24T20:46:44.801Z,100.00
2023-03-24T20:49:16.402Z,100.00
2023-03-24T20:51:44.236Z,100.00
2023-03-24T20:54:11.179Z,100.00
2023-03-24T20:56:37.871Z,100.00
2023-03-24T20:59:06.805Z,100.00
2023-03-24T21:01:37.297Z,100.00
2023-03-24T21:04:09.019Z,100.00
2023-03-24T21:06:38.166Z,100.00
2023-03-24T21:09:05.152Z,100.00
2023-03-24T21:11:32.198Z,100.00
2023-03-24T21:13:58.921Z,100.00
2023-03-24T21:16:26.650Z,100.00
2023-03-24T21:18:54.375Z,100.00
2023-03-24T21:21:21.060Z,100.00
2023-03-24T21:23:47.647Z,100.00
2023-03-24T21:26:17.988Z,100.00
2023-03-24T21:28:45.298Z,100.00
2023-03-24T21:31:23.090Z,100.00
2023-03-24T21:33:50.609Z,100.00
2023-03-24T21:36:17.804Z,100.00
2023-03-24T21:38:44.830Z,100.00
2023-03-24T21:41:11.663Z,100.00
2023-03-24T21:43:40.404Z,100.00
2023-03-24T21:46:14.804Z,100.00
2023-03-24T21:48:51.029Z,100.00
2023-03-24T21:51:20.272Z,100.00
2023-03-24T21:53:47.760Z,100.00
2023-03-24T21:56:14.494Z,100.00
2023-03-24T21:58:41.446Z,100.00
2023-03-24T22:01:08.907Z,100.00
2023-03-24T22:03:37.215Z,100.00
2023-03-24T22:06:05.515Z,100.00
2023-03-24T22:08:32.462Z,100.00
2023-03-24T22:11:04.115Z,100.00
2023-03-24T22:13:32.215Z,100.00
2023-03-24T22:16:01.392Z,100.00
2023-03-24T22:18:30.364Z,100.00
2023-03-24T22:21:03.215Z,100.00
2023-03-24T22:23:33.452Z,100.00
2023-03-24T22:26:07.117Z,100.00
2023-03-24T22:28:34.878Z,100.00
2023-03-24T22:31:03.378Z,100.00
2023-03-24T22:33:30.117Z,100.00
2023-03-24T22:35:57.755Z,100.00
2023-03-24T22:38:25.231Z,100.00
2023-03-24T22:40:55.989Z,100.00
2023-03-24T22:43:22.509Z,100.00
2023-03-24T22:45:49.148Z,100.00
2023-03-24T22:48:15.884Z,100.00
2023-03-24T22:50:42.481Z,100.00
2023-03-24T22:53:09.354Z,100.00
2023-03-24T22:55:36.715Z,100.00
2023-03-24T22:58:03.327Z,100.00
2023-03-24T23:00:31.524Z,100.00
2023-03-24T23:02:58.228Z,100.00
2023-03-24T23:05:25.025Z,100.00
2023-03-24T23:07:52.642Z,100.00
2023-03-24T23:10:19.532Z,100.00
2023-03-24T23:12:46.146Z,100.00
2023-03-24T23:15:14.062Z,100.00
2023-03-24T23:17:42.618Z,100.00
2023-03-24T23:20:12.075Z,100.00
2023-03-24T23:22:38.997Z,100.00
2023-03-24T23:25:06.984Z,100.00
2023-03-24T23:27:37.901Z,100.00
2023-03-24T23:30:07.027Z,100.00
2023-03-24T23:32:34.353Z,100.00
2023-03-24T23:35:02.808Z,100.00
2023-03-24T23:37:33.443Z,100.00
2023-03-24T23:40:06.467Z,100.00
2023-03-24T23:42:33.589Z,100.00
2023-03-24T23:45:00.104Z,100.00
2023-03-24T23:47:26.640Z,100.00
2023-03-24T23:49:53.101Z,100.00
2023-03-24T23:52:19.575Z,100.00
2023-03-24T23:54:46.516Z,100.00
2023-03-24T23:57:13.302Z,100.00
2023-03-24T23:59:39.890Z,100.00
